PWSweather.com
Personal Weather Stations
Station Observations
SUBOTICARS
SuboticaYU

SuboticaYU

Lat: 46.1296717, Lon: 19.641551

Elevation: 361

Station Type: Nexus

http://sumeteo.info

High Low Average
Temperature 80.7°F27.1°C 63.7°F17.6°C 74.1°F23.4°C
Dew Point 72.4°F22.4°C 59.6°F15.3°C 65.6°F18.7°C
Winds 8.1 mph 13.0 kmh Calm Calm 2.0 mph WSW3.2 kmh WSW
Wind Gusts 11.5 mph18.5 kmh -- 3.0 mph4.8 kmh
Humidity 95% 59% 76%
Pressure 29.52 in999.7 mb 29.45 in997.3 mb -
Precipitation 1.31 in33.3 mm - -
Hour Temp Dew Point Humidity Winds Wind Gusts Pressure Precip Precip Rate Daily Precip Total
11:25 AM 70.7°F21.5°C 69.2°F20.7°C 95% 2.3 mph ESE3.7 kmh ESE 3.5 mph5.6 kmh 29.51 in999.3 mb - 0.00 in0.0 mm 1.13 in28.7 mm
11:30 AM 71.4°F21.9°C 69.6°F20.9°C 94% 5.8 mph S9.3 kmh S 5.8 mph9.3 kmh 29.51 in999.3 mb - 0.00 in0.0 mm 1.13 in28.7 mm
11:35 AM 71.2°F21.8°C 69.4°F20.8°C 94% 3.5 mph SE5.6 kmh SE 3.5 mph5.6 kmh 29.51 in999.3 mb - 0.00 in0.0 mm 1.13 in28.7 mm
11:40 AM 70.9°F21.6°C 68.4°F20.2°C 92% 2.3 mph SSW3.7 kmh SSW 2.3 mph3.7 kmh 29.51 in999.3 mb - 0.00 in0.0 mm 1.13 in28.7 mm
11:45 AM 71.1°F21.7°C 69.2°F20.7°C 94% 3.5 mph SSE5.6 kmh SSE 3.5 mph5.6 kmh 29.51 in999.3 mb - 0.00 in0.0 mm 1.13 in28.7 mm
11:50 AM 71.2°F21.8°C 68.8°F20.4°C 92% 3.5 mph SSE5.6 kmh SSE 3.5 mph5.6 kmh 29.52 in999.7 mb - 0.00 in0.0 mm 1.13 in28.7 mm
11:55 AM 71.2°F21.8°C 68.8°F20.4°C 92% 2.3 mph S3.7 kmh S 4.6 mph7.4 kmh 29.52 in999.7 mb - 0.18 in4.6 mm 1.31 in33.3 mm
12:00 PM 71.5°F21.9°C 69.1°F20.6°C 92% 2.3 mph S3.7 kmh S 4.6 mph7.4 kmh 29.50 in999.0 mb - 0.18 in4.6 mm 1.31 in33.3 mm
12:10 PM 72.1°F22.3°C 69.7°F20.9°C 92% Calm Calm 1.2 mph1.9 kmh 29.50 in999.0 mb - 0.18 in4.6 mm 1.31 in33.3 mm
12:15 PM 72.7°F22.6°C 70.2°F21.2°C 92% Calm Calm 1.2 mph1.9 kmh 29.49 in998.6 mb - 0.18 in4.6 mm 1.31 in33.3 mm
12:20 PM 73.0°F22.8°C 70.6°F21.4°C 92% 3.5 mph SE5.6 kmh SE 3.5 mph5.6 kmh 29.49 in998.6 mb - 0.18 in4.6 mm 1.31 in33.3 mm
12:25 PM 73.9°F23.3°C 71.1°F21.7°C 91% 3.5 mph SSE5.6 kmh SSE 3.5 mph5.6 kmh 29.49 in998.6 mb - 0.18 in4.6 mm 1.31 in33.3 mm
12:30 PM 74.1°F23.4°C 71.0°F21.7°C 90% 3.5 mph SSW5.6 kmh SSW 3.5 mph5.6 kmh 29.49 in998.6 mb - 0.18 in4.6 mm 1.31 in33.3 mm
12:35 PM 74.5°F23.6°C 71.4°F21.9°C 90% 3.5 mph SSW5.6 kmh SSW 3.5 mph5.6 kmh 29.49 in998.6 mb - 0.18 in4.6 mm 1.31 in33.3 mm
12:40 PM 74.5°F23.6°C 71.4°F21.9°C 90% 3.5 mph SSW5.6 kmh SSW 3.5 mph5.6 kmh 29.49 in998.6 mb - 0.18 in4.6 mm 1.31 in33.3 mm
12:45 PM 75.4°F24.1°C 72.2°F22.3°C 90% 3.5 mph SSW5.6 kmh SSW 3.5 mph5.6 kmh 29.50 in999.0 mb - 0.18 in4.6 mm 1.31 in33.3 mm
12:50 PM 75.9°F24.4°C 72.4°F22.4°C 89% 2.3 mph S3.7 kmh S 2.3 mph3.7 kmh 29.50 in999.0 mb - 0.18 in4.6 mm 1.31 in33.3 mm
12:55 PM 75.6°F24.2°C 69.7°F20.9°C 82% 2.3 mph WNW3.7 kmh WNW 1.2 mph1.9 kmh 29.50 in999.0 mb - 0.00 in0.0 mm 1.31 in33.3 mm
01:00 PM 75.8°F24.3°C 72.0°F22.2°C 88% 3.5 mph SSW5.6 kmh SSW 4.6 mph7.4 kmh 29.49 in998.6 mb - 0.00 in0.0 mm 1.31 in33.3 mm
01:10 PM 76.1°F24.5°C 71.6°F22.0°C 86% 4.6 mph SW7.4 kmh SW 3.5 mph5.6 kmh 29.49 in998.6 mb - 0.00 in0.0 mm 1.31 in33.3 mm
01:15 PM 76.5°F24.7°C 72.0°F22.2°C 86% 1.2 mph SSE1.9 kmh SSE 1.2 mph1.9 kmh 29.50 in999.0 mb - 0.00 in0.0 mm 1.31 in33.3 mm
01:20 PM 76.5°F24.7°C 71.3°F21.8°C 84% 2.3 mph SSW3.7 kmh SSW 3.5 mph5.6 kmh 29.50 in999.0 mb - 0.00 in0.0 mm 1.31 in33.3 mm
01:25 PM 76.6°F24.8°C 70.7°F21.5°C 82% 1.2 mph WSW1.9 kmh WSW 2.3 mph3.7 kmh 29.50 in999.0 mb - 0.00 in0.0 mm 1.31 in33.3 mm
01:30 PM 76.8°F24.9°C 70.5°F21.4°C 81% 3.5 mph SSW5.6 kmh SSW 4.6 mph7.4 kmh 29.50 in999.0 mb - 0.00 in0.0 mm 1.31 in33.3 mm
01:35 PM 76.8°F24.9°C 69.8°F21.0°C 79% 3.5 mph S5.6 kmh S 4.6 mph7.4 kmh 29.50 in999.0 mb - 0.00 in0.0 mm 1.31 in33.3 mm
01:40 PM 76.6°F24.8°C 69.3°F20.7°C 78% 3.5 mph NW5.6 kmh NW 3.5 mph5.6 kmh 29.50 in999.0 mb - 0.00 in0.0 mm 1.31 in33.3 mm
01:45 PM 77.4°F25.2°C 68.4°F20.2°C 74% 2.3 mph SSW3.7 kmh SSW 3.5 mph5.6 kmh 29.49 in998.6 mb - 0.00 in0.0 mm 1.31 in33.3 mm
01:50 PM 77.9°F25.5°C 68.9°F20.5°C 74% 2.3 mph WSW3.7 kmh WSW 3.5 mph5.6 kmh 29.49 in998.6 mb - 0.00 in0.0 mm 1.31 in33.3 mm
01:55 PM 78.1°F25.6°C 68.7°F20.4°C 73% 3.5 mph WSW5.6 kmh WSW 3.5 mph5.6 kmh 29.49 in998.6 mb - 0.00 in0.0 mm 1.31 in33.3 mm
02:00 PM 78.1°F25.6°C 65.4°F18.6°C 65% 2.3 mph NNW3.7 kmh NNW 1.2 mph1.9 kmh 29.49 in998.6 mb - 0.00 in0.0 mm 1.31 in33.3 mm
02:10 PM 79.2°F26.2°C 68.9°F20.5°C 71% 2.3 mph S3.7 kmh S 3.5 mph5.6 kmh 29.49 in998.6 mb - 0.00 in0.0 mm 1.31 in33.3 mm
02:15 PM 79.0°F26.1°C 66.2°F19.0°C 65% 2.3 mph NW3.7 kmh NW 5.8 mph9.3 kmh 29.49 in998.6 mb - 0.00 in0.0 mm 1.31 in33.3 mm
02:20 PM 79.2°F26.2°C 68.1°F20.1°C 69% 4.6 mph SW7.4 kmh SW 4.6 mph7.4 kmh 29.49 in998.6 mb - 0.00 in0.0 mm 1.31 in33.3 mm
02:25 PM 78.9°F26.1°C 67.9°F19.9°C 69% 3.5 mph W5.6 kmh W 3.5 mph5.6 kmh 29.49 in998.6 mb - 0.00 in0.0 mm 1.31 in33.3 mm
02:30 PM 79.4°F26.3°C 66.6°F19.2°C 65% 3.5 mph WSW5.6 kmh WSW 4.6 mph7.4 kmh 29.48 in998.3 mb - 0.00 in0.0 mm 1.31 in33.3 mm
02:35 PM 79.3°F26.3°C 66.1°F18.9°C 64% 3.5 mph NNW5.6 kmh NNW 3.5 mph5.6 kmh 29.48 in998.3 mb - 0.00 in0.0 mm 1.31 in33.3 mm
02:40 PM 78.8°F26.0°C 65.6°F18.7°C 64% 2.3 mph SSW3.7 kmh SSW 3.5 mph5.6 kmh 29.48 in998.3 mb - 0.00 in0.0 mm 1.31 in33.3 mm
02:45 PM 79.3°F26.3°C 66.5°F19.2°C 65% 2.3 mph WSW3.7 kmh WSW 3.5 mph5.6 kmh 29.47 in998.0 mb - 0.00 in0.0 mm 1.31 in33.3 mm
02:50 PM 78.5°F25.8°C 63.4°F17.4°C 60% 2.3 mph NW3.7 kmh NW 2.3 mph3.7 kmh 29.47 in998.0 mb - 0.00 in0.0 mm 1.31 in33.3 mm
02:55 PM 79.3°F26.3°C 67.0°F19.4°C 66% 2.3 mph S3.7 kmh S 2.3 mph3.7 kmh 29.47 in998.0 mb - 0.00 in0.0 mm 1.31 in33.3 mm
03:00 PM 79.2°F26.2°C 64.6°F18.1°C 61% 2.3 mph N3.7 kmh N 2.3 mph3.7 kmh 29.46 in997.6 mb - 0.00 in0.0 mm 1.31 in33.3 mm
03:10 PM 79.2°F26.2°C 64.6°F18.1°C 61% 4.6 mph WNW7.4 kmh WNW 3.5 mph5.6 kmh 29.46 in997.6 mb - 0.00 in0.0 mm 1.31 in33.3 mm
03:15 PM 79.3°F26.3°C 64.7°F18.2°C 61% 3.5 mph NNW5.6 kmh NNW 4.6 mph7.4 kmh 29.46 in997.6 mb - 0.00 in0.0 mm 1.31 in33.3 mm
03:20 PM 79.7°F26.5°C 65.1°F18.4°C 61% 4.6 mph NNE7.4 kmh NNE 5.8 mph9.3 kmh 29.46 in997.6 mb - 0.00 in0.0 mm 1.31 in33.3 mm
03:25 PM 79.7°F26.5°C 65.5°F18.6°C 62% 4.6 mph NW7.4 kmh NW 3.5 mph5.6 kmh 29.46 in997.6 mb - 0.00 in0.0 mm 1.31 in33.3 mm
03:30 PM 79.7°F26.5°C 65.9°F18.8°C 63% 3.5 mph NW5.6 kmh NW 2.3 mph3.7 kmh 29.46 in997.6 mb - 0.00 in0.0 mm 1.31 in33.3 mm
03:35 PM 78.6°F25.9°C 65.0°F18.3°C 63% 2.3 mph NW3.7 kmh NW 3.5 mph5.6 kmh 29.46 in997.6 mb - 0.00 in0.0 mm 1.31 in33.3 mm
03:40 PM 79.0°F26.1°C 64.8°F18.2°C 62% 3.5 mph NW5.6 kmh NW 3.5 mph5.6 kmh 29.46 in997.6 mb - 0.00 in0.0 mm 1.31 in33.3 mm
03:45 PM 79.5°F26.4°C 64.4°F18.0°C 60% 3.5 mph N5.6 kmh N 6.9 mph11.1 kmh 29.46 in997.6 mb - 0.00 in0.0 mm 1.31 in33.3 mm
03:50 PM 79.7°F26.5°C 64.6°F18.1°C 60% 2.3 mph NW3.7 kmh NW 3.5 mph5.6 kmh 29.46 in997.6 mb - 0.00 in0.0 mm 1.31 in33.3 mm
03:55 PM 79.7°F26.5°C 65.5°F18.6°C 62% 2.3 mph NNW3.7 kmh NNW 3.5 mph5.6 kmh 29.46 in997.6 mb - 0.00 in0.0 mm 1.31 in33.3 mm
04:00 PM 79.8°F26.6°C 66.1°F18.9°C 63% 2.3 mph NW3.7 kmh NW 4.6 mph7.4 kmh 29.46 in997.6 mb - 0.00 in0.0 mm 1.31 in33.3 mm
04:10 PM 79.2°F26.2°C 64.1°F17.8°C 60% 2.3 mph NNE3.7 kmh NNE 3.5 mph5.6 kmh 29.47 in998.0 mb - 0.00 in0.0 mm 1.31 in33.3 mm
04:15 PM 79.9°F26.6°C 65.7°F18.7°C 62% 3.5 mph NNE5.6 kmh NNE 3.5 mph5.6 kmh 29.46 in997.6 mb - 0.00 in0.0 mm 1.31 in33.3 mm
04:20 PM 80.1°F26.7°C 65.9°F18.8°C 62% 3.5 mph NNW5.6 kmh NNW 3.5 mph5.6 kmh 29.45 in997.3 mb - 0.00 in0.0 mm 1.31 in33.3 mm
04:25 PM 79.3°F26.3°C 64.2°F17.9°C 60% 3.5 mph NNE5.6 kmh NNE 5.8 mph9.3 kmh 29.45 in997.3 mb - 0.00 in0.0 mm 1.31 in33.3 mm
04:30 PM 79.0°F26.1°C 64.4°F18.0°C 61% 2.3 mph WNW3.7 kmh WNW 2.3 mph3.7 kmh 29.45 in997.3 mb - 0.00 in0.0 mm 1.31 in33.3 mm
04:35 PM 79.2°F26.2°C 65.0°F18.3°C 62% 3.5 mph N5.6 kmh N 4.6 mph7.4 kmh 29.45 in997.3 mb - 0.00 in0.0 mm 1.31 in33.3 mm
04:40 PM 79.5°F26.4°C 64.9°F18.3°C 61% 2.3 mph NNW3.7 kmh NNW 2.3 mph3.7 kmh 29.45 in997.3 mb - 0.00 in0.0 mm 1.31 in33.3 mm
04:45 PM 79.9°F26.6°C 65.7°F18.7°C 62% 2.3 mph NW3.7 kmh NW 3.5 mph5.6 kmh 29.45 in997.3 mb - 0.00 in0.0 mm 1.31 in33.3 mm
04:50 PM 80.6°F27.0°C 66.3°F19.1°C 62% 1.2 mph WNW1.9 kmh WNW 2.3 mph3.7 kmh 29.45 in997.3 mb - 0.00 in0.0 mm 1.31 in33.3 mm
04:55 PM 80.7°F27.1°C 65.5°F18.6°C 60% 1.2 mph NNW1.9 kmh NNW 3.5 mph5.6 kmh 29.45 in997.3 mb - 0.00 in0.0 mm 1.31 in33.3 mm
05:00 PM 80.4°F26.9°C 64.7°F18.2°C 59% 3.5 mph WNW5.6 kmh WNW 4.6 mph7.4 kmh 29.45 in997.3 mb - 0.00 in0.0 mm 1.31 in33.3 mm
05:10 PM 80.1°F26.7°C 64.4°F18.0°C 59% 2.3 mph NW3.7 kmh NW 2.3 mph3.7 kmh 29.45 in997.3 mb - 0.00 in0.0 mm 1.31 in33.3 mm
05:15 PM 80.2°F26.8°C 65.6°F18.7°C 61% 2.3 mph SW3.7 kmh SW 3.5 mph5.6 kmh 29.45 in997.3 mb - 0.00 in0.0 mm 1.31 in33.3 mm
05:20 PM 80.1°F26.7°C 65.9°F18.8°C 62% 1.2 mph SW1.9 kmh SW 2.3 mph3.7 kmh 29.45 in997.3 mb - 0.00 in0.0 mm 1.31 in33.3 mm
05:25 PM 79.8°F26.6°C 64.7°F18.2°C 60% 2.3 mph NW3.7 kmh NW 2.3 mph3.7 kmh 29.45 in997.3 mb - 0.00 in0.0 mm 1.31 in33.3 mm
05:30 PM 79.8°F26.6°C 65.2°F18.4°C 61% 3.5 mph WSW5.6 kmh WSW 3.5 mph5.6 kmh 29.45 in997.3 mb - 0.00 in0.0 mm 1.31 in33.3 mm
05:35 PM 79.7°F26.5°C 65.5°F18.6°C 62% 2.3 mph NW3.7 kmh NW 3.5 mph5.6 kmh 29.45 in997.3 mb - 0.00 in0.0 mm 1.31 in33.3 mm
05:40 PM 79.0°F26.1°C 65.3°F18.5°C 63% 3.5 mph N5.6 kmh N 3.5 mph5.6 kmh 29.45 in997.3 mb - 0.00 in0.0 mm 1.31 in33.3 mm
05:45 PM 78.8°F26.0°C 65.1°F18.4°C 63% 2.3 mph NNW3.7 kmh NNW 2.3 mph3.7 kmh 29.45 in997.3 mb - 0.00 in0.0 mm 1.31 in33.3 mm
05:50 PM 78.5°F25.8°C 64.8°F18.2°C 63% 1.2 mph NNW1.9 kmh NNW 3.5 mph5.6 kmh 29.45 in997.3 mb - 0.00 in0.0 mm 1.31 in33.3 mm
05:55 PM 78.4°F25.8°C 64.8°F18.2°C 63% Calm Calm 1.2 mph1.9 kmh 29.45 in997.3 mb - 0.00 in0.0 mm 1.31 in33.3 mm
06:00 PM 78.1°F25.6°C 64.4°F18.0°C 63% 2.3 mph WNW3.7 kmh WNW 2.3 mph3.7 kmh 29.45 in997.3 mb - 0.00 in0.0 mm 1.31 in33.3 mm
06:10 PM 77.5°F25.3°C 64.4°F18.0°C 64% 3.5 mph WNW5.6 kmh WNW 3.5 mph5.6 kmh 29.45 in997.3 mb - 0.00 in0.0 mm 1.31 in33.3 mm
06:15 PM 77.4°F25.2°C 64.7°F18.2°C 65% 1.2 mph NNW1.9 kmh NNW 2.3 mph3.7 kmh 29.46 in997.6 mb - 0.00 in0.0 mm 1.31 in33.3 mm
06:20 PM 77.2°F25.1°C 65.0°F18.3°C 66% 2.3 mph NW3.7 kmh NW 3.5 mph5.6 kmh 29.46 in997.6 mb - 0.00 in0.0 mm 1.31 in33.3 mm
06:25 PM 77.0°F25.0°C 64.8°F18.2°C 66% 1.2 mph WNW1.9 kmh WNW -- 29.46 in997.6 mb - 0.00 in0.0 mm 1.31 in33.3 mm
06:30 PM 77.0°F25.0°C 65.2°F18.4°C 67% Calm Calm 1.2 mph1.9 kmh 29.46 in997.6 mb - 0.00 in0.0 mm 1.31 in33.3 mm
06:35 PM 76.6°F24.8°C 65.7°F18.7°C 69% Calm Calm -- 29.46 in997.6 mb - 0.00 in0.0 mm 1.31 in33.3 mm
06:40 PM 76.5°F24.7°C 65.9°F18.8°C 70% Calm Calm -- 29.46 in997.6 mb - 0.00 in0.0 mm 1.31 in33.3 mm
06:45 PM 76.1°F24.5°C 66.0°F18.9°C 71% Calm Calm -- 29.47 in998.0 mb - 0.00 in0.0 mm 1.31 in33.3 mm
06:50 PM 75.9°F24.4°C 65.4°F18.6°C 70% Calm Calm -- 29.47 in998.0 mb - 0.00 in0.0 mm 1.31 in33.3 mm
06:55 PM 75.7°F24.3°C 66.1°F18.9°C 72% Calm Calm -- 29.47 in998.0 mb - 0.00 in0.0 mm 1.31 in33.3 mm
07:00 PM 75.6°F24.2°C 65.9°F18.8°C 72% Calm Calm -- 29.47 in998.0 mb - 0.00 in0.0 mm 1.31 in33.3 mm
07:10 PM 75.0°F23.9°C 66.2°F19.0°C 74% Calm Calm -- 29.47 in998.0 mb - 0.00 in0.0 mm 1.31 in33.3 mm
07:15 PM 74.7°F23.7°C 66.2°F19.0°C 75% Calm Calm -- 29.47 in998.0 mb - 0.00 in0.0 mm 1.31 in33.3 mm
07:20 PM 74.4°F23.6°C 66.3°F19.1°C 76% Calm Calm -- 29.47 in998.0 mb - 0.00 in0.0 mm 1.31 in33.3 mm
07:25 PM 73.9°F23.3°C 65.8°F18.8°C 76% Calm Calm -- 29.47 in998.0 mb - 0.00 in0.0 mm 1.31 in33.3 mm
07:30 PM 73.6°F23.1°C 65.5°F18.6°C 76% Calm Calm -- 29.46 in997.6 mb - 0.00 in0.0 mm 1.31 in33.3 mm
07:35 PM 73.0°F22.8°C 66.1°F18.9°C 79% Calm Calm -- 29.46 in997.6 mb - 0.00 in0.0 mm 1.31 in33.3 mm
07:40 PM 72.5°F22.5°C 65.2°F18.4°C 78% Calm Calm -- 29.46 in997.6 mb - 0.00 in0.0 mm 1.31 in33.3 mm
07:45 PM 72.3°F22.4°C 65.8°F18.8°C 80% Calm Calm -- 29.46 in997.6 mb - 0.00 in0.0 mm 1.31 in33.3 mm
07:50 PM 72.0°F22.2°C 65.5°F18.6°C 80% Calm Calm -- 29.46 in997.6 mb - 0.00 in0.0 mm 1.31 in33.3 mm
07:55 PM 71.7°F22.1°C 65.2°F18.4°C 80% Calm Calm -- 29.46 in997.6 mb - 0.00 in0.0 mm 1.31 in33.3 mm
08:00 PM 71.2°F21.8°C 64.7°F18.2°C 80% Calm Calm -- 29.46 in997.6 mb - 0.00 in0.0 mm 1.31 in33.3 mm
08:10 PM 70.5°F21.4°C 64.8°F18.2°C 82% Calm Calm -- 29.46 in997.6 mb - 0.00 in0.0 mm 1.31 in33.3 mm
08:15 PM 70.2°F21.2°C 65.8°F18.8°C 86% Calm Calm -- 29.47 in998.0 mb - 0.00 in0.0 mm 1.31 in33.3 mm
08:20 PM 70.0°F21.1°C 64.9°F18.3°C 84% Calm Calm -- 29.47 in998.0 mb - 0.00 in0.0 mm 1.31 in33.3 mm
08:25 PM 70.0°F21.1°C 64.6°F18.1°C 83% Calm Calm -- 29.47 in998.0 mb - 0.00 in0.0 mm 1.31 in33.3 mm
08:30 PM 70.2°F21.2°C 64.8°F18.2°C 83% Calm Calm -- 29.48 in998.3 mb - 0.00 in0.0 mm 1.31 in33.3 mm
08:35 PM 70.2°F21.2°C 65.1°F18.4°C 84% 1.2 mph WNW1.9 kmh WNW 2.3 mph3.7 kmh 29.48 in998.3 mb - 0.00 in0.0 mm 1.31 in33.3 mm
08:40 PM 70.2°F21.2°C 65.1°F18.4°C 84% Calm Calm 1.2 mph1.9 kmh 29.48 in998.3 mb - 0.00 in0.0 mm 1.31 in33.3 mm
08:45 PM 70.0°F21.1°C 65.6°F18.7°C 86% Calm Calm -- 29.48 in998.3 mb - 0.00 in0.0 mm 1.31 in33.3 mm
08:50 PM 70.1°F21.2°C 65.7°F18.7°C 86% Calm Calm -- 29.47 in998.0 mb - 0.00 in0.0 mm 1.31 in33.3 mm
08:55 PM 70.0°F21.1°C 65.6°F18.7°C 86% Calm Calm -- 29.47 in998.0 mb - 0.00 in0.0 mm 1.31 in33.3 mm
09:00 PM 70.0°F21.1°C 65.6°F18.7°C 86% Calm Calm -- 29.48 in998.3 mb - 0.00 in0.0 mm 1.31 in33.3 mm
09:10 PM 69.8°F21.0°C 65.4°F18.6°C 86% Calm Calm -- 29.48 in998.3 mb - 0.00 in0.0 mm 1.31 in33.3 mm
09:15 PM 69.8°F21.0°C 65.4°F18.6°C 86% Calm Calm -- 29.48 in998.3 mb - 0.00 in0.0 mm 1.31 in33.3 mm
09:20 PM 69.7°F20.9°C 65.7°F18.7°C 87% Calm Calm -- 29.48 in998.3 mb - 0.00 in0.0 mm 1.31 in33.3 mm
09:25 PM 69.4°F20.8°C 65.4°F18.6°C 87% Calm Calm -- 29.48 in998.3 mb - 0.00 in0.0 mm 1.31 in33.3 mm
09:30 PM 69.3°F20.7°C 65.2°F18.4°C 87% Calm Calm -- 29.48 in998.3 mb - 0.00 in0.0 mm 1.31 in33.3 mm
09:35 PM 69.3°F20.7°C 65.2°F18.4°C 87% Calm Calm -- 29.48 in998.3 mb - 0.00 in0.0 mm 1.31 in33.3 mm
09:40 PM 69.3°F20.7°C 65.2°F18.4°C 87% 1.2 mph NW1.9 kmh NW 1.2 mph1.9 kmh 29.48 in998.3 mb - 0.00 in0.0 mm 1.31 in33.3 mm
09:45 PM 69.3°F20.7°C 65.2°F18.4°C 87% Calm Calm -- 29.48 in998.3 mb - 0.00 in0.0 mm 1.31 in33.3 mm
09:50 PM 69.3°F20.7°C 65.2°F18.4°C 87% 2.3 mph NW3.7 kmh NW 2.3 mph3.7 kmh 29.48 in998.3 mb - 0.00 in0.0 mm 1.31 in33.3 mm
09:55 PM 69.9°F21.1°C 63.8°F17.7°C 81% 8.1 mph WNW13.0 kmh WNW 11.5 mph18.5 kmh 29.48 in998.3 mb - 0.00 in0.0 mm 1.31 in33.3 mm
10:00 PM 69.6°F20.9°C 63.5°F17.5°C 81% 4.6 mph W7.4 kmh W 6.9 mph11.1 kmh 29.49 in998.6 mb - 0.00 in0.0 mm 1.31 in33.3 mm
10:10 PM 69.1°F20.6°C 61.9°F16.6°C 78% 5.8 mph WNW9.3 kmh WNW 8.1 mph13.0 kmh 29.50 in999.0 mb - 0.00 in0.0 mm 1.31 in33.3 mm
10:15 PM 68.7°F20.4°C 60.8°F16.0°C 76% 8.1 mph NW13.0 kmh NW 10.4 mph16.7 kmh 29.49 in998.6 mb - 0.00 in0.0 mm 1.31 in33.3 mm
10:20 PM 68.5°F20.3°C 60.7°F15.9°C 76% 4.6 mph W7.4 kmh W 5.8 mph9.3 kmh 29.49 in998.6 mb - 0.00 in0.0 mm 1.31 in33.3 mm
10:25 PM 68.5°F20.3°C 59.9°F15.5°C 74% 5.8 mph NNW9.3 kmh NNW 11.5 mph18.5 kmh 29.49 in998.6 mb - 0.00 in0.0 mm 1.31 in33.3 mm
10:30 PM 68.4°F20.2°C 59.7°F15.4°C 74% 6.9 mph NNW11.1 kmh NNW 9.2 mph14.8 kmh 29.49 in998.6 mb - 0.00 in0.0 mm 1.31 in33.3 mm
10:35 PM 68.2°F20.1°C 59.6°F15.3°C 74% 6.9 mph WNW11.1 kmh WNW 4.6 mph7.4 kmh 29.49 in998.6 mb - 0.00 in0.0 mm 1.31 in33.3 mm
10:40 PM 67.8°F19.9°C 59.6°F15.3°C 75% 6.9 mph NNW11.1 kmh NNW 6.9 mph11.1 kmh 29.49 in998.6 mb - 0.00 in0.0 mm 1.31 in33.3 mm
10:45 PM 67.5°F19.7°C 59.6°F15.3°C 76% 4.6 mph NE7.4 kmh NE 5.8 mph9.3 kmh 29.49 in998.6 mb - 0.00 in0.0 mm 1.31 in33.3 mm
10:50 PM 66.8°F19.3°C 60.1°F15.6°C 79% 3.5 mph NW5.6 kmh NW 6.9 mph11.1 kmh 29.49 in998.6 mb - 0.00 in0.0 mm 1.31 in33.3 mm
10:55 PM 66.6°F19.2°C 59.8°F15.4°C 79% 1.2 mph WSW1.9 kmh WSW 2.3 mph3.7 kmh 29.49 in998.6 mb - 0.00 in0.0 mm 1.31 in33.3 mm
11:00 PM 66.6°F19.2°C 59.8°F15.4°C 79% 1.2 mph SW1.9 kmh SW 2.3 mph3.7 kmh 29.49 in998.6 mb - 0.00 in0.0 mm 1.98 in50.3 mm
11:10 PM 65.7°F18.7°C 60.4°F15.8°C 83% 2.3 mph WNW3.7 kmh WNW 2.3 mph3.7 kmh 29.49 in998.6 mb - 0.00 in0.0 mm 1.98 in50.3 mm
11:15 PM 65.7°F18.7°C 60.4°F15.8°C 83% 2.3 mph NW3.7 kmh NW 1.2 mph1.9 kmh 29.49 in998.6 mb - 0.01 in0.3 mm 0.01 in0.3 mm
11:20 PM 65.7°F18.7°C 60.4°F15.8°C 83% 3.5 mph NW5.6 kmh NW 3.5 mph5.6 kmh 29.49 in998.6 mb - 0.01 in0.3 mm 0.01 in0.3 mm
11:25 PM 64.7°F18.2°C 60.5°F15.8°C 86% 3.5 mph W5.6 kmh W 3.5 mph5.6 kmh 29.49 in998.6 mb - 0.02 in0.5 mm 0.02 in0.5 mm
11:30 PM 64.4°F18.0°C 61.1°F16.2°C 89% 2.3 mph NW3.7 kmh NW 3.5 mph5.6 kmh 29.48 in998.3 mb - 0.03 in0.8 mm 0.03 in0.8 mm
11:35 PM 64.2°F17.9°C 60.9°F16.1°C 89% 2.3 mph WNW3.7 kmh WNW 3.5 mph5.6 kmh 29.48 in998.3 mb - 0.04 in1.0 mm 0.04 in1.0 mm
11:40 PM 64.1°F17.8°C 60.1°F15.6°C 87% 1.2 mph NW1.9 kmh NW 3.5 mph5.6 kmh 29.48 in998.3 mb - 0.05 in1.3 mm 0.05 in1.3 mm
11:45 PM 64.0°F17.8°C 60.1°F15.6°C 87% 3.5 mph SW5.6 kmh SW 4.6 mph7.4 kmh 29.49 in998.6 mb - 0.06 in1.5 mm 0.06 in1.5 mm
11:50 PM 63.9°F17.7°C 60.2°F15.7°C 88% 2.3 mph WNW3.7 kmh WNW 1.2 mph1.9 kmh 29.49 in998.6 mb - 0.07 in1.8 mm 0.07 in1.8 mm
11:55 PM 63.7°F17.6°C 60.1°F15.6°C 88% 1.2 mph NNW1.9 kmh NNW 3.5 mph5.6 kmh 29.49 in998.6 mb - 0.08 in2.0 mm 0.08 in2.0 mm